createdAt,value
2023-05-18T00:02:10.098Z,58.53
2023-05-18T00:04:37.795Z,58.44
2023-05-18T00:07:05.668Z,58.43
2023-05-18T00:09:37.218Z,58.49
2023-05-18T00:12:05.906Z,58.42
2023-05-18T00:14:32.976Z,58.26
2023-05-18T00:17:02.134Z,58.52
2023-05-18T00:19:30.439Z,58.53
2023-05-18T00:21:58.055Z,58.61
2023-05-18T00:24:25.193Z,58.42
2023-05-18T00:26:52.284Z,58.47
2023-05-18T00:29:19.552Z,58.48
2023-05-18T00:31:46.761Z,58.42
2023-05-18T00:34:15.987Z,58.59
2023-05-18T00:36:43.188Z,58.51
2023-05-18T00:39:10.730Z,58.56
2023-05-18T00:41:37.843Z,58.40
2023-05-18T00:44:08.034Z,58.40
2023-05-18T00:46:35.324Z,58.28
2023-05-18T00:49:02.919Z,58.49
2023-05-18T00:51:32.545Z,58.56
2023-05-18T00:54:02.020Z,58.29
2023-05-18T00:56:29.022Z,58.38
2023-05-18T00:58:57.640Z,58.37
2023-05-18T01:01:35.174Z,58.49
2023-05-18T01:04:03.462Z,58.51
2023-05-18T01:06:36.589Z,58.55
2023-05-18T01:09:07.248Z,58.45
2023-05-18T01:11:47.440Z,58.51
2023-05-18T01:14:36.901Z,58.46
2023-05-18T01:17:03.989Z,58.27
2023-05-18T01:19:37.949Z,58.38
2023-05-18T01:22:24.101Z,58.54
2023-05-18T01:24:55.885Z,58.46
2023-05-18T01:27:25.996Z,58.43
2023-05-18T01:29:56.325Z,58.41
2023-05-18T01:32:23.405Z,58.52
2023-05-18T01:34:50.596Z,58.40
2023-05-18T01:37:17.641Z,58.48
2023-05-18T01:39:44.677Z,58.61
2023-05-18T01:42:26.956Z,58.56
2023-05-18T01:45:08.401Z,58.49
2023-05-18T01:47:38.614Z,58.55
2023-05-18T01:50:14.151Z,58.33
2023-05-18T01:53:29.646Z,58.50
2023-05-18T01:55:57.812Z,58.41
2023-05-18T01:58:25.751Z,58.38
2023-05-18T02:00:53.383Z,58.30
2023-05-18T02:03:20.644Z,58.38
2023-05-18T02:05:47.777Z,58.39
2023-05-18T02:08:14.819Z,58.46
2023-05-18T02:10:41.783Z,58.51
2023-05-18T02:13:09.025Z,58.41
2023-05-18T02:15:36.119Z,58.41
2023-05-18T02:18:03.272Z,58.49
2023-05-18T02:20:33.768Z,58.34
2023-05-18T02:23:00.952Z,58.44
2023-05-18T02:25:28.092Z,58.47
2023-05-18T02:27:55.635Z,58.54
2023-05-18T02:30:22.685Z,58.56
2023-05-18T02:32:49.731Z,58.55
2023-05-18T02:35:18.528Z,58.45
2023-05-18T02:37:45.894Z,58.47
2023-05-18T02:40:14.653Z,58.53
2023-05-18T02:42:42.294Z,58.43
2023-05-18T02:45:09.711Z,58.51
2023-05-18T02:47:36.791Z,58.61
2023-05-18T02:50:04.218Z,58.43
2023-05-18T02:52:31.358Z,58.36
2023-05-18T02:54:58.374Z,58.43
2023-05-18T02:57:25.436Z,58.26
2023-05-18T02:59:52.432Z,58.48
2023-05-18T03:02:19.622Z,58.51
2023-05-18T03:04:49.391Z,58.49
2023-05-18T03:07:16.452Z,58.38
2023-05-18T03:09:43.481Z,58.42
2023-05-18T03:12:10.649Z,58.33
2023-05-18T03:14:37.693Z,58.47
2023-05-18T03:17:06.380Z,58.32
2023-05-18T03:19:35.300Z,58.46
2023-05-18T03:22:02.270Z,58.54
2023-05-18T03:24:30.662Z,58.44
2023-05-18T03:26:57.852Z,58.48
2023-05-18T03:29:24.821Z,58.50
2023-05-18T03:31:52.053Z,58.49
2023-05-18T03:34:19.086Z,58.35
2023-05-18T03:36:47.705Z,58.25
2023-05-18T03:39:14.813Z,58.44
2023-05-18T03:41:41.895Z,58.38
2023-05-18T03:44:08.906Z,58.34
2023-05-18T03:46:35.915Z,58.52
2023-05-18T03:49:05.314Z,58.45
2023-05-18T03:51:32.322Z,58.43
2023-05-18T03:53:59.370Z,58.46
2023-05-18T03:56:26.589Z,58.52
2023-05-18T03:58:53.643Z,58.52
2023-05-18T04:01:24.066Z,58.26
2023-05-18T04:03:51.795Z,58.35
2023-05-18T04:06:18.986Z,58.53
2023-05-18T04:08:46.482Z,58.44
2023-05-18T04:11:13.746Z,58.46
2023-05-18T04:13:42.361Z,58.41
2023-05-18T04:16:13.695Z,58.30
2023-05-18T04:18:41.846Z,58.51
2023-05-18T04:21:09.332Z,58.33
2023-05-18T04:23:39.658Z,58.52
2023-05-18T04:26:07.371Z,58.39
2023-05-18T04:28:34.312Z,58.41
2023-05-18T04:31:02.217Z,58.35
2023-05-18T04:33:30.301Z,58.57
2023-05-18T04:35:59.257Z,58.42
2023-05-18T04:38:26.376Z,58.45
2023-05-18T04:40:54.017Z,58.55
2023-05-18T04:43:21.643Z,58.49
2023-05-18T04:45:50.905Z,58.38
2023-05-18T04:48:20.698Z,58.31
2023-05-18T04:50:47.776Z,58.53
2023-05-18T04:53:18.478Z,58.36
2023-05-18T04:55:46.741Z,58.30
2023-05-18T04:58:13.861Z,58.43
2023-05-18T05:00:40.898Z,58.34
2023-05-18T05:03:08.101Z,58.54
2023-05-18T05:05:35.462Z,58.50
2023-05-18T05:08:02.509Z,58.49
2023-05-18T05:10:29.606Z,58.43
2023-05-18T05:12:56.888Z,58.38
2023-05-18T05:15:23.913Z,58.41
2023-05-18T05:17:51.280Z,58.33
2023-05-18T05:20:18.666Z,58.63
2023-05-18T05:22:46.193Z,58.39
2023-05-18T05:25:13.376Z,58.45
2023-05-18T05:27:40.898Z,58.39
2023-05-18T05:30:10.185Z,58.44
2023-05-18T05:32:37.468Z,58.55
2023-05-18T05:35:05.020Z,58.44
2023-05-18T05:37:32.099Z,58.51
2023-05-18T05:39:59.781Z,58.29
2023-05-18T05:42:27.169Z,58.35
2023-05-18T05:44:54.271Z,58.32
2023-05-18T05:47:21.359Z,58.63
2023-05-18T05:49:48.356Z,58.46
2023-05-18T05:52:15.549Z,58.42
2023-05-18T05:54:42.696Z,58.33
2023-05-18T05:57:09.777Z,58.38
2023-05-18T05:59:36.937Z,58.43
2023-05-18T06:02:04.312Z,58.27
2023-05-18T06:04:31.428Z,58.35
2023-05-18T06:06:58.578Z,58.28
2023-05-18T06:09:25.618Z,58.34
2023-05-18T06:11:53.339Z,58.45
2023-05-18T06:14:20.371Z,58.32
2023-05-18T06:16:48.397Z,58.34
2023-05-18T06:19:15.681Z,58.40
2023-05-18T06:21:42.864Z,57.53
2023-05-18T06:24:10.231Z,57.86
2023-05-18T06:26:37.620Z,58.06
2023-05-18T06:29:06.148Z,58.57
2023-05-18T06:31:33.688Z,58.59
2023-05-18T06:34:00.918Z,58.42
2023-05-18T06:36:28.078Z,58.85
2023-05-18T06:38:55.308Z,58.86
2023-05-18T06:41:22.809Z,56.94
2023-05-18T06:43:50.084Z,57.25
2023-05-18T06:46:24.457Z,57.99
2023-05-18T06:48:51.783Z,58.39
2023-05-18T06:51:19.411Z,58.49
2023-05-18T06:53:46.947Z,58.50
2023-05-18T06:56:14.106Z,58.60
2023-05-18T06:58:42.593Z,58.65
2023-05-18T07:01:10.986Z,58.55
2023-05-18T07:03:38.551Z,58.45
2023-05-18T07:06:06.731Z,58.48
2023-05-18T07:08:34.402Z,58.52
2023-05-18T07:11:02.776Z,58.47
2023-05-18T07:13:30.095Z,56.85
2023-05-18T07:15:57.717Z,56.07
2023-05-18T07:18:25.399Z,56.00
2023-05-18T07:20:52.586Z,55.85
2023-05-18T07:23:19.918Z,56.08
2023-05-18T07:25:47.317Z,56.01
2023-05-18T07:28:14.500Z,56.73
2023-05-18T07:30:42.011Z,56.58
2023-05-18T07:33:09.149Z,56.32
2023-05-18T07:35:37.336Z,56.53
2023-05-18T07:38:04.648Z,56.56
2023-05-18T07:40:31.784Z,56.69
2023-05-18T07:42:58.923Z,56.89
2023-05-18T07:45:26.147Z,56.82
2023-05-18T07:47:53.628Z,57.04
2023-05-18T07:50:20.660Z,57.27
2023-05-18T07:52:47.764Z,57.32
2023-05-18T07:55:14.813Z,56.94
2023-05-18T07:57:42.359Z,56.97
2023-05-18T08:00:10.816Z,56.97
2023-05-18T08:02:38.225Z,56.88
2023-05-18T08:05:05.838Z,56.99
2023-05-18T08:07:33.870Z,56.90
2023-05-18T08:10:00.993Z,56.95
2023-05-18T08:12:30.330Z,57.06
2023-05-18T08:14:57.701Z,56.66
2023-05-18T08:17:24.814Z,56.68
2023-05-18T08:19:54.156Z,56.45
2023-05-18T08:22:21.677Z,56.86
2023-05-18T08:24:48.985Z,56.92
2023-05-18T08:27:16.075Z,56.84
2023-05-18T08:29:43.201Z,56.67
2023-05-18T08:32:10.491Z,56.86
2023-05-18T08:34:38.253Z,56.83
2023-05-18T08:37:05.790Z,56.75
2023-05-18T08:39:33.190Z,56.87
2023-05-18T08:42:00.436Z,57.03
2023-05-18T08:44:35.403Z,56.98
2023-05-18T08:47:06.096Z,57.08
2023-05-18T08:49:33.761Z,57.08
2023-05-18T08:52:05.078Z,56.77
2023-05-18T08:54:33.782Z,56.94
2023-05-18T08:57:03.226Z,56.86
2023-05-18T08:59:32.478Z,56.72
2023-05-18T09:02:00.046Z,57.00
2023-05-18T09:04:28.288Z,56.71
2023-05-18T09:06:56.907Z,56.50
2023-05-18T09:09:25.968Z,56.94
2023-05-18T09:11:53.591Z,56.75
2023-05-18T09:14:23.440Z,56.53
2023-05-18T09:16:50.930Z,56.60
2023-05-18T09:19:18.295Z,56.56
2023-05-18T09:21:45.648Z,56.52
2023-05-18T09:24:13.143Z,56.33
2023-05-18T09:26:40.533Z,56.42
2023-05-18T09:29:21.704Z,56.29
2023-05-18T09:31:49.655Z,56.33
2023-05-18T09:34:19.714Z,56.39
2023-05-18T09:36:58.277Z,56.28
2023-05-18T09:39:25.603Z,56.38
2023-05-18T09:41:59.576Z,56.24
2023-05-18T09:44:34.755Z,56.37
2023-05-18T09:47:03.595Z,56.18
2023-05-18T09:49:33.892Z,56.43
2023-05-18T09:52:01.086Z,56.43
2023-05-18T09:54:28.464Z,56.35
2023-05-18T09:57:09.501Z,56.36
2023-05-18T09:59:38.401Z,56.21
2023-05-18T10:02:06.484Z,56.46
2023-05-18T10:04:39.948Z,56.17
2023-05-18T10:07:14.465Z,56.20
2023-05-18T10:09:43.603Z,56.20
2023-05-18T10:12:15.319Z,56.22
2023-05-18T10:14:45.020Z,56.07
2023-05-18T10:17:17.313Z,56.16
2023-05-18T10:19:46.675Z,55.89
2023-05-18T10:22:17.603Z,54.96
2023-05-18T10:24:51.165Z,53.94
2023-05-18T10:27:22.362Z,53.68
2023-05-18T10:29:52.781Z,52.67
2023-05-18T10:32:21.437Z,52.54
2023-05-18T10:34:49.478Z,52.46
2023-05-18T10:37:16.923Z,52.11
2023-05-18T10:39:46.060Z,51.75
2023-05-18T10:42:16.682Z,51.65
2023-05-18T10:44:46.388Z,51.46
2023-05-18T10:47:15.761Z,51.71
2023-05-18T10:49:49.749Z,51.35
2023-05-18T10:52:21.261Z,51.36
2023-05-18T10:54:48.957Z,51.74
2023-05-18T10:57:19.745Z,52.19
2023-05-18T10:59:48.577Z,52.60
2023-05-18T11:02:19.052Z,53.04
2023-05-18T11:04:48.349Z,52.76
2023-05-18T11:07:16.229Z,53.18
2023-05-18T11:09:45.857Z,54.06
2023-05-18T11:12:14.623Z,54.19
2023-05-18T11:15:08.270Z,53.95
2023-05-18T11:17:35.508Z,54.31
2023-05-18T11:20:02.758Z,54.75
2023-05-18T11:22:49.504Z,54.64
2023-05-18T11:25:28.997Z,55.13
2023-05-18T11:28:02.379Z,55.29
2023-05-18T11:30:38.154Z,55.53
2023-05-18T11:33:33.140Z,55.77
2023-05-18T11:36:16.051Z,55.35
2023-05-18T11:39:07.571Z,55.48
2023-05-18T11:41:36.206Z,54.63
2023-05-18T11:44:12.488Z,52.84
2023-05-18T11:47:04.593Z,51.52
2023-05-18T11:49:43.811Z,51.39
2023-05-18T11:52:25.056Z,51.11
2023-05-18T11:54:53.528Z,50.99
2023-05-18T11:57:25.499Z,50.36
2023-05-18T12:00:00.109Z,51.46
2023-05-18T12:02:31.670Z,52.07
2023-05-18T12:05:03.508Z,52.18
2023-05-18T12:07:35.694Z,52.57
2023-05-18T12:10:04.496Z,53.02
2023-05-18T12:12:32.109Z,53.13
2023-05-18T12:15:00.754Z,53.12
2023-05-18T12:17:48.034Z,53.47
2023-05-18T12:20:25.553Z,53.70
2023-05-18T12:22:54.424Z,53.96
2023-05-18T12:25:24.097Z,54.15
2023-05-18T12:27:53.146Z,54.31
2023-05-18T12:30:22.683Z,54.26
2023-05-18T12:32:52.887Z,54.42
2023-05-18T12:35:24.288Z,54.36
2023-05-18T12:37:51.778Z,54.22
2023-05-18T12:40:21.045Z,54.26
2023-05-18T12:43:00.028Z,54.53
2023-05-18T12:45:29.387Z,54.24
2023-05-18T12:47:56.866Z,54.43
2023-05-18T12:50:28.984Z,54.13
2023-05-18T12:52:59.624Z,54.24
2023-05-18T12:55:27.148Z,54.22
2023-05-18T12:58:19.992Z,54.39
2023-05-18T13:00:48.988Z,54.31
2023-05-18T13:03:24.849Z,54.49
2023-05-18T13:06:06.557Z,54.40
2023-05-18T13:08:35.657Z,54.90
2023-05-18T13:11:13.635Z,55.02
2023-05-18T13:14:08.452Z,54.80
2023-05-18T13:16:45.191Z,53.38
2023-05-18T13:19:18.697Z,52.07
2023-05-18T13:21:46.676Z,50.62
2023-05-18T13:24:14.120Z,52.31
2023-05-18T13:26:41.553Z,53.27
2023-05-18T13:29:09.090Z,53.50
2023-05-18T13:31:36.841Z,53.69
2023-05-18T13:34:04.196Z,53.68
2023-05-18T13:36:32.278Z,53.85
2023-05-18T13:38:59.418Z,53.88
2023-05-18T13:41:26.592Z,53.13
2023-05-18T13:43:53.738Z,51.62
2023-05-18T13:46:21.122Z,51.26
2023-05-18T13:48:48.284Z,50.58
2023-05-18T13:51:15.460Z,50.34
2023-05-18T13:53:42.585Z,49.51
2023-05-18T13:56:09.826Z,49.55
2023-05-18T13:58:37.085Z,49.72
2023-05-18T14:01:09.118Z,49.64
2023-05-18T14:03:37.947Z,49.54
2023-05-18T14:06:05.256Z,49.72
2023-05-18T14:08:32.363Z,50.27
2023-05-18T14:10:59.528Z,50.77
2023-05-18T14:13:26.723Z,51.78
2023-05-18T14:15:53.958Z,52.25
2023-05-18T14:18:21.105Z,52.11
2023-05-18T14:20:49.224Z,52.19
2023-05-18T14:23:16.512Z,53.01
2023-05-18T14:25:45.961Z,53.26
2023-05-18T14:28:13.756Z,53.82
2023-05-18T14:30:41.061Z,54.24
2023-05-18T14:33:08.638Z,54.43
2023-05-18T14:35:36.038Z,54.21
2023-05-18T14:38:03.386Z,54.20
2023-05-18T14:40:30.858Z,54.10
2023-05-18T14:42:58.194Z,54.02
2023-05-18T14:45:25.418Z,53.86
2023-05-18T14:47:52.696Z,53.87
2023-05-18T14:50:19.909Z,54.21
2023-05-18T14:52:47.084Z,54.23
2023-05-18T14:55:14.462Z,54.34
2023-05-18T14:57:41.538Z,54.53
2023-05-18T15:00:10.007Z,54.28
2023-05-18T15:02:37.819Z,54.31
2023-05-18T15:05:05.376Z,54.40
2023-05-18T15:07:32.927Z,54.91
2023-05-18T15:10:00.788Z,54.82
2023-05-18T15:12:27.953Z,54.94
2023-05-18T15:14:55.527Z,54.94
2023-05-18T15:17:22.797Z,55.02
2023-05-18T15:19:50.042Z,55.11
2023-05-18T15:22:17.607Z,53.62
2023-05-18T15:24:44.978Z,53.45
2023-05-18T15:27:12.566Z,54.51
2023-05-18T15:29:39.825Z,54.67
2023-05-18T15:32:07.439Z,55.22
2023-05-18T15:34:35.775Z,55.05
2023-05-18T15:37:03.152Z,54.91
2023-05-18T15:39:30.701Z,55.43
2023-05-18T15:41:58.039Z,55.01
2023-05-18T15:44:29.884Z,55.02
2023-05-18T15:46:59.871Z,54.98
2023-05-18T15:49:27.348Z,54.93
2023-05-18T15:51:54.823Z,54.93
2023-05-18T15:54:22.059Z,54.79
2023-05-18T15:56:49.205Z,54.75
2023-05-18T15:59:16.645Z,55.08
2023-05-18T16:01:45.212Z,55.38
2023-05-18T16:04:12.596Z,55.23
2023-05-18T16:06:40.130Z,55.07
2023-05-18T16:09:07.325Z,55.07
2023-05-18T16:11:36.208Z,54.96
2023-05-18T16:14:04.191Z,54.91
2023-05-18T16:16:31.820Z,55.16
2023-05-18T16:19:01.134Z,55.00
2023-05-18T16:21:28.521Z,54.92
2023-05-18T16:23:56.884Z,55.06
2023-05-18T16:26:24.192Z,54.85
2023-05-18T16:28:51.493Z,55.09
2023-05-18T16:31:18.659Z,55.02
2023-05-18T16:33:46.200Z,55.18
2023-05-18T16:36:13.633Z,55.23
2023-05-18T16:38:40.739Z,54.96
2023-05-18T16:41:08.208Z,54.94
2023-05-18T16:43:36.013Z,54.23
2023-05-18T16:46:03.181Z,54.19
2023-05-18T16:48:30.418Z,54.65
2023-05-18T16:50:57.627Z,54.92
2023-05-18T16:53:24.716Z,55.37
2023-05-18T16:55:51.774Z,53.50
2023-05-18T16:58:18.860Z,54.25
2023-05-18T17:00:45.934Z,54.79
2023-05-18T17:03:13.661Z,55.91
2023-05-18T17:05:41.008Z,55.55
2023-05-18T17:08:08.395Z,55.85
2023-05-18T17:10:36.047Z,55.36
2023-05-18T17:13:03.633Z,53.81
2023-05-18T17:15:31.304Z,53.10
2023-05-18T17:17:59.144Z,53.08
2023-05-18T17:20:26.648Z,53.72
2023-05-18T17:22:54.445Z,53.81
2023-05-18T17:25:22.083Z,54.18
2023-05-18T17:27:51.524Z,54.41
2023-05-18T17:30:18.923Z,54.81
2023-05-18T17:32:50.984Z,54.72
2023-05-18T17:35:18.543Z,54.83
2023-05-18T17:37:47.058Z,55.05
2023-05-18T17:40:14.540Z,55.06
2023-05-18T17:42:41.702Z,55.50
2023-05-18T17:45:09.835Z,55.11
2023-05-18T17:47:38.633Z,53.50
2023-05-18T17:50:06.558Z,53.32
2023-05-18T17:52:33.959Z,54.15
2023-05-18T17:55:01.238Z,53.89
2023-05-18T17:57:29.708Z,54.40
2023-05-18T17:59:57.042Z,54.72
2023-05-18T18:02:24.555Z,55.47
2023-05-18T18:04:52.027Z,55.13
2023-05-18T18:07:19.154Z,55.28
2023-05-18T18:09:46.778Z,55.48
2023-05-18T18:12:14.141Z,55.69
2023-05-18T18:14:41.294Z,56.30
2023-05-18T18:17:08.595Z,56.22
2023-05-18T18:19:35.855Z,56.16
2023-05-18T18:22:03.503Z,56.47
2023-05-18T18:24:30.865Z,57.63
2023-05-18T18:26:58.060Z,56.77
2023-05-18T18:29:26.433Z,56.61
2023-05-18T18:31:53.504Z,56.37
2023-05-18T18:34:20.624Z,56.12
2023-05-18T18:36:48.221Z,54.90
2023-05-18T18:39:15.615Z,54.19
2023-05-18T18:41:43.080Z,54.28
2023-05-18T18:44:10.905Z,56.03
2023-05-18T18:46:38.056Z,55.97
2023-05-18T18:49:05.174Z,55.92
2023-05-18T18:51:32.988Z,56.18
2023-05-18T18:54:00.052Z,56.28
2023-05-18T18:56:27.933Z,56.10
2023-05-18T18:58:55.114Z,56.64
2023-05-18T19:01:22.329Z,56.34
2023-05-18T19:03:49.736Z,56.82
2023-05-18T19:06:17.889Z,56.71
2023-05-18T19:08:45.445Z,56.50
2023-05-18T19:11:12.954Z,56.76
2023-05-18T19:13:40.159Z,56.29
2023-05-18T19:16:07.305Z,56.58
2023-05-18T19:18:34.813Z,56.54
2023-05-18T19:21:03.062Z,57.00
2023-05-18T19:23:30.232Z,56.34
2023-05-18T19:25:58.215Z,56.35
2023-05-18T19:28:25.382Z,56.78
2023-05-18T19:30:52.554Z,56.15
2023-05-18T19:33:20.824Z,54.43
2023-05-18T19:35:49.893Z,54.28
2023-05-18T19:38:17.182Z,53.97
2023-05-18T19:40:44.841Z,54.18
2023-05-18T19:43:12.324Z,54.52
2023-05-18T19:45:39.902Z,54.75
2023-05-18T19:48:07.319Z,54.89
2023-05-18T19:50:34.575Z,55.18
2023-05-18T19:53:01.687Z,55.09
2023-05-18T19:55:29.058Z,55.11
2023-05-18T19:57:56.991Z,55.43
2023-05-18T20:00:26.171Z,55.39
2023-05-18T20:02:53.428Z,55.38
2023-05-18T20:05:20.939Z,55.43
2023-05-18T20:07:48.236Z,55.75
2023-05-18T20:10:16.483Z,55.58
2023-05-18T20:12:44.397Z,55.62
2023-05-18T20:15:12.162Z,55.94
2023-05-18T20:17:39.948Z,56.25
2023-05-18T20:20:08.745Z,56.58
2023-05-18T20:22:38.734Z,56.78
2023-05-18T20:25:06.686Z,56.86
2023-05-18T20:27:33.869Z,56.80
2023-05-18T20:30:01.121Z,57.04
2023-05-18T20:32:29.401Z,57.22
2023-05-18T20:34:56.934Z,57.34
2023-05-18T20:37:26.604Z,57.53
2023-05-18T20:39:54.810Z,57.65
2023-05-18T20:42:23.190Z,57.54
2023-05-18T20:44:54.412Z,57.60
2023-05-18T20:47:21.971Z,57.51
2023-05-18T20:49:49.039Z,57.73
2023-05-18T20:52:16.260Z,57.73
2023-05-18T20:54:44.260Z,57.89
2023-05-18T20:57:11.669Z,58.06
2023-05-18T20:59:38.753Z,58.06
2023-05-18T21:02:06.580Z,58.04
2023-05-18T21:04:33.927Z,58.20
2023-05-18T21:07:01.622Z,58.12
2023-05-18T21:09:32.239Z,58.13
2023-05-18T21:11:59.465Z,58.14
2023-05-18T21:14:26.821Z,58.16
2023-05-18T21:16:54.207Z,58.11
2023-05-18T21:19:21.772Z,58.18
2023-05-18T21:21:49.162Z,58.39
2023-05-18T21:24:16.223Z,58.35
2023-05-18T21:26:43.681Z,58.25
2023-05-18T21:29:10.904Z,58.25
2023-05-18T21:31:38.191Z,58.28
2023-05-18T21:34:05.665Z,58.37
2023-05-18T21:36:35.704Z,58.54
2023-05-18T21:39:05.514Z,58.53
2023-05-18T21:41:33.787Z,58.51
2023-05-18T21:44:00.931Z,58.60
2023-05-18T21:46:28.195Z,58.70
2023-05-18T21:48:55.351Z,58.80
2023-05-18T21:51:22.582Z,58.72
2023-05-18T21:53:49.725Z,58.83
2023-05-18T21:56:17.128Z,58.86
2023-05-18T21:58:44.156Z,58.74
2023-05-18T22:01:11.444Z,58.77
2023-05-18T22:03:38.891Z,58.77
2023-05-18T22:06:06.492Z,58.98
2023-05-18T22:08:33.572Z,58.67
2023-05-18T22:11:00.748Z,58.90
2023-05-18T22:13:27.929Z,58.57
2023-05-18T22:15:54.931Z,58.92
2023-05-18T22:18:23.981Z,59.13
2023-05-18T22:20:51.084Z,58.83
2023-05-18T22:23:18.464Z,59.00
2023-05-18T22:25:46.865Z,58.93
2023-05-18T22:28:14.137Z,59.07
2023-05-18T22:30:41.447Z,59.02
2023-05-18T22:33:08.633Z,58.96
2023-05-18T22:35:37.282Z,58.87
2023-05-18T22:38:04.350Z,59.03
2023-05-18T22:40:31.616Z,58.94
2023-05-18T22:42:59.001Z,59.13
2023-05-18T22:45:26.042Z,59.10
2023-05-18T22:47:53.244Z,59.02
2023-05-18T22:50:20.447Z,59.14
2023-05-18T22:52:47.983Z,59.27
2023-05-18T22:55:15.080Z,59.15
2023-05-18T22:57:43.074Z,59.32
2023-05-18T23:00:12.922Z,59.13
2023-05-18T23:02:41.339Z,59.26
2023-05-18T23:05:09.385Z,59.34
2023-05-18T23:07:42.154Z,59.20
2023-05-18T23:10:14.121Z,59.23
2023-05-18T23:12:42.007Z,59.42
2023-05-18T23:15:09.799Z,59.27
2023-05-18T23:17:39.256Z,59.59
2023-05-18T23:20:11.784Z,59.41
2023-05-18T23:22:38.826Z,59.61
2023-05-18T23:25:09.088Z,59.31
2023-05-18T23:27:36.433Z,59.29
2023-05-18T23:30:03.870Z,59.42
2023-05-18T23:32:31.273Z,59.34
2023-05-18T23:34:59.928Z,59.47
2023-05-18T23:37:27.124Z,59.39
2023-05-18T23:39:56.843Z,59.50
2023-05-18T23:42:25.174Z,59.39
2023-05-18T23:44:52.559Z,59.44
2023-05-18T23:47:20.012Z,59.41
2023-05-18T23:49:48.102Z,59.30
2023-05-18T23:52:18.006Z,59.37
2023-05-18T23:54:47.510Z,59.46
2023-05-18T23:57:14.825Z,59.61
2023-05-18T23:59:43.034Z,59.60
